createdAt,value
2023-04-07T00:02:24.226Z,3.38
2023-04-07T00:07:52.276Z,4.90
2023-04-07T00:13:12.203Z,4.00
2023-04-07T00:18:28.195Z,4.28
2023-04-07T00:23:44.238Z,4.88
2023-04-07T00:29:01.052Z,3.65
2023-04-07T00:34:16.781Z,3.42
2023-04-07T00:39:33.499Z,4.10
2023-04-07T00:44:49.205Z,3.45
2023-04-07T00:50:05.638Z,4.00
2023-04-07T00:55:21.784Z,3.95
2023-04-07T01:00:53.940Z,4.10
2023-04-07T01:06:11.547Z,3.65
2023-04-07T01:12:05.607Z,3.58
2023-04-07T01:17:26.357Z,3.83
2023-04-07T01:28:22.953Z,3.55
2023-04-07T01:33:40.476Z,4.15
2023-04-07T01:38:57.141Z,3.50
2023-04-07T01:44:14.585Z,3.60
2023-04-07T01:49:32.468Z,3.35
2023-04-07T01:54:49.682Z,3.40
2023-04-07T02:00:06.631Z,3.85
2023-04-07T02:05:23.013Z,3.22
2023-04-07T02:10:39.674Z,3.35
2023-04-07T02:15:56.608Z,3.50
2023-04-07T02:21:15.490Z,3.88
2023-04-07T02:26:37.030Z,3.90
2023-04-07T02:31:52.655Z,3.45
2023-04-07T02:37:08.734Z,3.17
2023-04-07T02:42:25.243Z,4.55
2023-04-07T02:47:41.201Z,4.28
2023-04-07T02:52:57.046Z,4.28
2023-04-07T02:58:12.857Z,4.35
2023-04-07T03:03:29.426Z,4.80
2023-04-07T03:08:45.539Z,3.92
2023-04-07T03:14:01.474Z,4.40
2023-04-07T03:19:16.978Z,3.85
2023-04-07T03:24:33.156Z,4.10
2023-04-07T03:29:49.081Z,3.72
2023-04-07T03:35:05.531Z,3.92
2023-04-07T03:40:22.072Z,3.47
2023-04-07T03:45:38.271Z,3.95
2023-04-07T03:50:54.013Z,3.95
2023-04-07T03:56:09.709Z,3.95
2023-04-07T04:01:25.136Z,4.47
2023-04-07T04:06:41.128Z,3.83
2023-04-07T04:11:57.317Z,3.75
2023-04-07T04:17:13.417Z,3.53
2023-04-07T04:22:29.279Z,3.10
2023-04-07T04:27:44.586Z,4.35
2023-04-07T04:32:59.996Z,4.75
2023-04-07T04:38:16.580Z,4.22
2023-04-07T04:43:32.457Z,5.13
2023-04-07T04:48:48.517Z,3.92
2023-04-07T04:54:06.554Z,4.95
2023-04-07T04:59:22.859Z,6.63
2023-04-07T05:04:39.074Z,4.38
2023-04-07T05:09:54.945Z,3.97
2023-04-07T05:15:11.236Z,5.43
2023-04-07T05:20:27.241Z,5.22
2023-04-07T05:25:43.223Z,5.72
2023-04-07T05:30:59.071Z,4.57
2023-04-07T05:36:14.936Z,5.07
2023-04-07T05:41:30.839Z,4.22
2023-04-07T05:46:46.924Z,4.68
2023-04-07T05:52:03.754Z,5.53
2023-04-07T05:57:19.359Z,4.50
2023-04-07T06:02:34.860Z,4.32
2023-04-07T06:07:50.912Z,4.55
2023-04-07T06:13:06.843Z,3.88
2023-04-07T06:18:23.327Z,4.03
2023-04-07T06:23:39.094Z,4.10
2023-04-07T06:28:54.794Z,3.72
2023-04-07T06:34:10.673Z,3.92
2023-04-07T06:39:28.166Z,4.10
2023-04-07T06:44:44.108Z,3.72
2023-04-07T06:50:00.154Z,4.05
2023-04-07T06:55:16.402Z,4.07
2023-04-07T07:00:32.727Z,3.13
2023-04-07T07:05:50.371Z,2.60
2023-04-07T07:11:06.550Z,2.55
2023-04-07T07:16:24.375Z,2.72
2023-04-07T07:21:39.796Z,2.50
2023-04-07T07:26:57.510Z,3.00
2023-04-07T07:32:13.259Z,3.10
2023-04-07T07:37:29.104Z,2.92
2023-04-07T07:42:47.321Z,2.58
2023-04-07T07:48:03.169Z,2.53
2023-04-07T07:53:19.698Z,2.58
2023-04-07T07:58:35.658Z,2.58
2023-04-07T08:03:51.677Z,2.15
2023-04-07T08:09:07.799Z,2.60
2023-04-07T08:14:23.697Z,2.45
2023-04-07T08:19:39.037Z,2.35
2023-04-07T08:24:54.357Z,2.83
2023-04-07T08:30:10.675Z,2.28
2023-04-07T08:35:26.536Z,3.15
2023-04-07T08:40:42.942Z,2.55
2023-04-07T08:45:58.962Z,3.03
2023-04-07T08:51:15.884Z,2.55
2023-04-07T08:56:34.201Z,2.53
2023-04-07T09:01:50.457Z,2.55
2023-04-07T09:07:05.994Z,2.35
2023-04-07T09:12:21.356Z,2.60
2023-04-07T09:17:37.384Z,2.63
2023-04-07T09:22:53.384Z,2.47
2023-04-07T09:28:09.403Z,2.92
2023-04-07T09:33:28.992Z,2.58
2023-04-07T09:38:46.214Z,2.33
2023-04-07T09:44:01.622Z,2.65
2023-04-07T09:49:18.059Z,2.53
2023-04-07T09:54:41.956Z,2.00
2023-04-07T09:59:58.549Z,2.95
2023-04-07T10:05:14.314Z,2.45
2023-04-07T10:10:31.895Z,2.33
2023-04-07T10:15:49.244Z,2.35
2023-04-07T10:21:09.472Z,1.85
2023-04-07T10:26:29.609Z,2.38
2023-04-07T10:31:45.848Z,2.40
2023-04-07T10:37:14.789Z,2.78
2023-04-07T10:42:39.855Z,2.53
2023-04-07T10:47:58.432Z,2.67
2023-04-07T10:53:15.774Z,2.83
2023-04-07T10:58:32.888Z,2.28
2023-04-07T11:03:57.360Z,1.98
2023-04-07T11:09:20.220Z,2.15
2023-04-07T11:14:37.736Z,2.35
2023-04-07T11:19:53.955Z,1.65
2023-04-07T11:25:23.181Z,2.75
2023-04-07T11:30:39.282Z,2.60
2023-04-07T11:35:57.903Z,2.28
2023-04-07T11:41:15.782Z,2.55
2023-04-07T11:46:31.704Z,2.10
2023-04-07T11:51:47.727Z,1.85
2023-04-07T11:57:03.940Z,2.05
2023-04-07T12:02:37.233Z,1.70
2023-04-07T12:07:54.748Z,2.70
2023-04-07T12:13:10.637Z,2.03
2023-04-07T12:18:26.242Z,2.28
2023-04-07T12:23:43.323Z,2.35
2023-04-07T12:29:05.484Z,2.13
2023-04-07T12:34:21.991Z,2.55
2023-04-07T12:39:37.456Z,2.13
2023-04-07T12:44:53.321Z,2.28
2023-04-07T12:50:09.485Z,2.00
2023-04-07T12:55:25.691Z,2.30
2023-04-07T13:00:42.029Z,2.10
2023-04-07T13:06:01.414Z,1.55
2023-04-07T13:11:17.152Z,1.88
2023-04-07T13:16:33.140Z,2.78
2023-04-07T13:21:49.314Z,1.60
2023-04-07T13:27:05.343Z,1.58
2023-04-07T13:32:21.558Z,1.25
2023-04-07T13:37:37.467Z,1.83
2023-04-07T13:42:53.367Z,1.67
2023-04-07T13:48:09.269Z,1.63
2023-04-07T13:53:25.263Z,1.88
2023-04-07T13:58:40.700Z,1.63
2023-04-07T14:04:00.743Z,1.95
2023-04-07T14:09:16.650Z,1.70
2023-04-07T14:14:32.579Z,1.55
2023-04-07T14:19:48.415Z,1.48
2023-04-07T14:25:04.261Z,1.90
2023-04-07T14:30:20.131Z,1.30
2023-04-07T14:35:38.189Z,1.83
2023-04-07T14:40:54.448Z,1.42
2023-04-07T14:46:10.562Z,1.50
2023-04-07T14:51:26.395Z,1.50
2023-04-07T14:56:42.417Z,1.38
2023-04-07T15:01:58.316Z,1.45
2023-04-07T15:07:14.358Z,1.60
2023-04-07T15:12:31.754Z,1.40
2023-04-07T15:17:47.462Z,1.20
2023-04-07T15:23:03.698Z,1.23
2023-04-07T15:28:19.532Z,1.73
2023-04-07T15:33:37.061Z,1.40
2023-04-07T15:38:53.022Z,1.50
2023-04-07T15:44:08.543Z,1.30
2023-04-07T15:49:26.121Z,1.50
2023-04-07T15:54:41.946Z,0.90
2023-04-07T15:59:57.700Z,1.40
2023-04-07T16:05:13.768Z,1.20
2023-04-07T16:10:29.631Z,1.40
2023-04-07T16:15:45.838Z,1.35
2023-04-07T16:21:03.015Z,1.60
2023-04-07T16:26:19.898Z,1.77
2023-04-07T16:31:35.862Z,1.75
2023-04-07T16:36:51.744Z,1.77
2023-04-07T16:42:07.647Z,1.90
2023-04-07T16:47:25.001Z,2.28
2023-04-07T16:52:40.920Z,1.85
2023-04-07T16:57:56.705Z,2.22
2023-04-07T17:03:15.667Z,1.73
2023-04-07T17:08:36.597Z,1.95
2023-04-07T17:13:57.130Z,1.90
2023-04-07T17:19:13.367Z,2.03
2023-04-07T17:24:29.413Z,2.05
2023-04-07T17:29:45.145Z,1.98
2023-04-07T17:35:01.373Z,2.20
2023-04-07T17:40:17.094Z,1.98
2023-04-07T17:45:33.226Z,1.70
2023-04-07T17:50:51.756Z,2.72
2023-04-07T17:56:07.686Z,2.67
2023-04-07T18:01:23.912Z,2.65
2023-04-07T18:06:40.054Z,2.28
2023-04-07T18:11:55.838Z,2.58
2023-04-07T18:17:11.770Z,1.73
2023-04-07T18:22:28.412Z,2.47
2023-04-07T18:27:44.518Z,1.85
2023-04-07T18:33:00.136Z,2.25
2023-04-07T18:38:16.239Z,1.73
2023-04-07T18:43:32.249Z,2.20
2023-04-07T18:48:48.176Z,4.35
2023-04-07T18:54:04.238Z,3.70
2023-04-07T18:59:20.453Z,2.53
2023-04-07T19:04:36.344Z,2.85
2023-04-07T19:09:53.970Z,2.75
2023-04-07T19:15:10.334Z,2.90
2023-04-07T19:20:26.492Z,2.85
2023-04-07T19:25:43.837Z,3.15
2023-04-07T19:31:01.688Z,3.30
2023-04-07T19:36:17.184Z,2.58
2023-04-07T19:41:33.245Z,2.95
2023-04-07T19:46:49.332Z,3.85
2023-04-07T19:52:05.333Z,4.50
2023-04-07T19:57:21.369Z,4.15
2023-04-07T20:02:38.213Z,4.13
2023-04-07T20:07:54.344Z,4.60
2023-04-07T20:13:10.585Z,3.72
2023-04-07T20:18:28.805Z,3.88
2023-04-07T20:23:44.595Z,4.43
2023-04-07T20:29:00.148Z,4.65
2023-04-07T20:34:16.664Z,6.22
2023-04-07T20:39:32.957Z,6.30
2023-04-07T20:44:49.547Z,4.40
2023-04-07T20:50:06.752Z,6.25
2023-04-07T20:55:22.752Z,6.40
2023-04-07T21:00:38.621Z,7.65
2023-04-07T21:05:55.526Z,6.55
2023-04-07T21:11:11.317Z,6.25
2023-04-07T21:16:27.154Z,8.02
2023-04-07T21:21:43.077Z,5.38
2023-04-07T21:26:59.074Z,7.00
2023-04-07T21:32:15.663Z,6.18
2023-04-07T21:37:31.494Z,7.85
2023-04-07T21:42:47.639Z,6.00
2023-04-07T21:48:03.972Z,6.97
2023-04-07T21:53:19.856Z,7.15
2023-04-07T21:58:37.608Z,8.25
2023-04-07T22:03:53.187Z,7.45
2023-04-07T22:09:09.908Z,7.22
2023-04-07T22:14:26.648Z,7.07
2023-04-07T22:19:42.628Z,6.97
2023-04-07T22:24:58.262Z,6.50
2023-04-07T22:30:14.263Z,7.07
2023-04-07T22:35:30.128Z,7.38
2023-04-07T22:40:46.208Z,6.97
2023-04-07T22:46:02.514Z,6.35
2023-04-07T22:51:18.435Z,7.55
2023-04-07T22:56:34.268Z,6.25
2023-04-07T23:01:51.023Z,6.53
2023-04-07T23:07:07.004Z,7.05
2023-04-07T23:12:22.745Z,6.43
2023-04-07T23:17:38.824Z,6.40
2023-04-07T23:22:54.849Z,6.22
2023-04-07T23:28:10.746Z,6.78
2023-04-07T23:33:26.751Z,6.93
2023-04-07T23:38:42.754Z,7.72
2023-04-07T23:43:58.577Z,8.13
2023-04-07T23:49:14.479Z,7.40
2023-04-07T23:54:30.969Z,6.25
2023-04-07T23:59:46.874Z,7.25
